Terminal Aerodrome Forecast
Issued by NWS Tampa Bay Area, FL

Current Version | Previous Version | Text Only | Print | Product List | Glossary On
Versions: 1 2 3 4 5 6 7 8 9 10 11 12 13 14
173
FTUS42 KTBW 200521
TAFSRQ
TAF
KSRQ 200521Z 2006/2106 05008KT P6SM FEW020
     FM201600 06011G16KT P6SM FEW025 SCT200
     FM202300 07010G15KT P6SM FEW050 SCT080=

USA.gov is the U.S. government's official web portal to all federal, state and local government web resources and services.